Latest Weather Observations for Moorabbin Airport

IDV60801

Issued at 9:02 pm EST Monday 25 May 2015 (issued every 30 minutes, with the page automatically refreshed every 10 minutes)

About weather observations | Map of weather stations | Latest weather observations for VIC | Other Formats
Station Details ID: 086077 Name: MOORABBIN AIRPORT Lat: -37.98 Lon: 145.10 Height: 12.1 m
Data from the previous 72 hours. | See also: Recent months at Moorabbin Airport
Date/Time
EST
Temp
°C
App
Temp
°C
Dew
Point
Rel
Hum
%
Delta-T
°C
Wind Press
QNH
hPa
Press
MSL
hPa
Rain
since 9 am
mm
Dir
 
Spd
km/h
Gust
km/h
Spd
kts
Gust
kts
25/09:00pm 9.6 5.8 5.8 77 1.7 N 15 17 8 9 1030.3 1030.3 0.0
25/08:30pm 9.7 6.3 5.7 76 1.8 N 13 15 7 8 1030.3 1030.3 0.0
25/08:00pm 9.7 6.7 5.9 77 1.7 NNE 11 13 6 7 1030.2 1030.2 0.0
25/07:30pm 10.1 7.5 5.9 75 1.9 N 9 11 5 6 1030.1 1030.1 0.0
25/07:00pm 10.9 8.3 6.1 72 2.2 NNE 9 9 5 5 1029.7 1029.8 0.0
25/06:30pm 11.4 8.5 6.3 71 2.4 NNE 11 11 6 6 1029.5 1029.6 0.0
25/06:00pm 11.2 8.2 5.9 70 2.4 NE 11 13 6 7 1029.1 1029.2 0.0
25/05:30pm 12.8 10.4 6.8 67 2.9 NNE 9 11 5 6 1028.9 1029.0 0.0
25/05:00pm 13.7 11.6 6.8 63 3.3 NNE 7 9 4 5 1028.6 1028.7 0.0
25/04:30pm 13.9 11.4 6.5 61 3.6 NNE 9 11 5 6 1028.6 1028.7 0.0
25/04:00pm 15.3 12.8 6.6 56 4.2 N 9 11 5 6 1028.7 1028.8 0.0
25/03:30pm 16.3 13.3 5.9 50 5.0 N 11 17 6 9 1028.7 1028.8 0.0
25/03:00pm 16.5 13.2 6.3 51 4.9 N 13 19 7 10 1028.7 1028.8 0.0
25/02:30pm 16.4 12.8 6.8 53 4.7 N 15 19 8 10 1028.9 1029.0 0.0
25/02:00pm 16.4 12.8 6.8 53 4.7 N 15 20 8 11 1029.2 1029.3 0.0
25/01:30pm 16.1 12.5 6.8 54 4.6 N 15 20 8 11 1029.4 1029.5 0.0
25/01:00pm 15.5 12.0 7.0 57 4.1 N 15 19 8 10 1029.8 1029.9 0.0
25/12:30pm 15.2 12.0 7.0 58 4.0 N 13 17 7 9 1030.3 1030.3 0.0
25/12:00pm 14.5 10.5 6.8 60 3.7 N 17 20 9 11 1030.7 1030.7 0.0
25/11:30am 13.5 9.1 6.6 63 3.3 N 19 26 10 14 1031.1 1031.1 0.0
25/11:00am 13.1 9.6 7.1 67 2.9 N 15 20 8 11 1031.5 1031.5 0.0
25/10:30am 12.3 8.6 6.1 66 2.9 N 15 20 8 11 1031.6 1031.6 0.0
25/10:00am 11.9 8.6 6.2 68 2.7 N 13 15 7 8 1031.5 1031.5 0.0
25/09:30am 11.7 8.8 6.4 70 2.5 NNW 11 13 6 7 1031.6 1031.6 0.0
25/09:00am 10.9 7.5 6.1 72 2.2 N 13 17 7 9 1031.6 1031.6 0.0
25/08:30am 10.1 7.1 5.9 75 1.9 N 11 15 6 8 1031.5 1031.5 0.0
25/08:00am 9.4 6.6 5.2 75 1.9 N 9 13 5 7 1031.4 1031.4 0.0
25/07:30am 9.6 6.1 5.6 76 1.8 N 13 17 7 9 1031.2 1031.2 0.0
25/07:00am 9.0 6.6 5.2 77 1.7 N 7 9 4 5 1031.2 1031.2 0.0
25/06:30am 8.9 6.6 4.9 76 1.8 NNW 6 7 3 4 1031.1 1031.1 0.0
25/06:00am 9.1 6.2 4.7 74 1.9 N 9 13 5 7 1030.6 1030.6 0.0
25/05:30am 9.2 6.8 5.2 76 1.8 N 7 9 4 5 1030.0 1030.0 0.0
25/05:00am 9.2 6.1 5.4 77 1.7 NNE 11 13 6 7 1029.8 1029.9 0.0
25/04:30am 9.1 5.9 5.3 77 1.7 NNE 11 13 6 7 1030.1 1030.1 0.0
25/04:00am 8.2 7.0 4.6 78 1.6 CALM 0 6 0 3 1029.8 1029.9 0.0
25/03:30am 9.0 6.2 5.0 76 1.8 N 9 11 5 6 1030.2 1030.2 0.0
25/03:00am 9.0 6.6 5.2 77 1.7 N 7 9 4 5 1030.5 1030.5 0.0
25/02:30am 8.5 6.1 5.1 79 1.5 N 7 9 4 5 1030.4 1030.4 0.0
25/02:00am 7.8 4.5 4.7 81 1.3 N 11 13 6 7 1030.5 1030.5 0.0
25/01:30am 8.1 5.6 4.5 78 1.6 N 7 9 4 5 1030.4 1030.4 0.0
25/01:00am 8.2 5.3 4.8 79 1.5 N 9 11 5 6 1030.7 1030.7 0.0
25/12:30am 8.6 5.4 5.2 79 1.5 N 11 15 6 8 1031.0 1031.0 0.0
25/12:00am 8.2 5.4 5.0 80 1.4 N 9 11 5 6 1030.9 1030.9 0.0
 
Date/Time
EST
Temp
°C
App
Temp
°C
Dew
Point
Rel
Hum
%
Delta-T
°C
Wind Press
QNH
hPa
Press
MSL
hPa
Rain
since 9 am
mm
Dir
 
Spd
km/h
Gust
km/h
Spd
kts
Gust
kts
24/11:30pm 9.1 5.5 5.1 76 1.8 N 13 15 7 8 1031.0 1031.0 0.0
24/11:00pm 9.3 5.4 5.3 76 1.8 N 15 19 8 10 1031.0 1031.0 0.0
24/10:30pm 9.5 6.3 5.3 75 1.9 NNW 11 15 6 8 1031.1 1031.1 0.0
24/10:00pm 9.4 6.6 5.2 75 1.9 NW 9 13 5 7 1031.2 1031.2 0.0
24/09:30pm 10.1 7.0 5.5 73 2.1 NNW 11 15 6 8 1030.9 1030.9 0.0
24/09:00pm 10.5 7.1 5.9 73 2.1 NNW 13 17 7 9 1031.0 1031.0 0.0
24/08:30pm 8.0 5.8 6.1 88 0.9 N 7 9 4 5 1030.8 1030.8 0.0
24/08:00pm 8.3 6.2 5.8 84 1.1 NNE 6 9 3 5 1030.8 1030.8 0.0
24/07:30pm 8.0 6.1 4.9 81 1.4 SSE 4 7 2 4 1030.8 1030.8 0.0
24/07:00pm 9.4 8.1 5.9 79 1.6 NW 2 7 1 4 1030.6 1030.6 0.0
24/06:30pm 9.6 8.6 5.6 76 1.8 CALM 0 0 0 0 1030.3 1030.3 0.0
24/06:00pm 9.9 7.6 5.5 74 2.0 SSE 7 9 4 5 1030.2 1030.2 0.0
24/05:30pm 10.9 9.6 5.9 71 2.3 ESE 2 7 1 4 1029.8 1029.9 0.0
24/05:00pm 11.6 9.3 5.9 68 2.6 S 7 9 4 5 1030.0 1030.0 0.0
24/04:30pm 12.3 9.8 6.6 68 2.7 SSW 9 9 5 5 1030.0 1030.0 0.0
24/04:00pm 12.8 10.5 7.3 69 2.6 S 9 11 5 6 1030.0 1030.0 0.0
24/03:30pm 13.4 11.1 7.6 68 2.8 SSW 9 11 5 6 1029.8 1029.9 0.0
24/03:00pm 13.5 10.9 7.7 68 2.8 S 11 15 6 8 1029.6 1029.7 0.0
24/02:30pm 13.3 11.1 7.7 69 2.8 SSW 9 11 5 6 1029.5 1029.6 0.0
24/02:00pm 12.9 10.3 7.6 70 2.6 SSW 11 15 6 8 1029.7 1029.8 0.0
24/01:30pm 13.5 11.7 7.1 65 3.1 SW 6 9 3 5 1029.8 1029.9 0.0
24/01:00pm 13.5 11.3 6.1 61 3.5 N 7 11 4 6 1030.2 1030.2 0.0
24/12:30pm 12.6 10.4 6.4 66 2.9 N 7 9 4 5 1030.6 1030.6 0.0
24/12:00pm 12.0 9.0 6.1 67 2.7 N 11 17 6 9 1031.1 1031.1 0.0
24/11:30am 11.1 7.8 6.5 73 2.2 NNE 13 15 7 8 1031.5 1031.5 0.0
24/11:00am 9.2 5.4 5.6 78 1.6 NNE 15 20 8 11 1032.0 1032.0 0.0
24/10:30am 8.2 5.0 5.1 81 1.4 NNE 11 17 6 9 1032.4 1032.4 0.0
24/10:00am 7.3 4.4 4.4 82 1.2 NNE 9 11 5 6 1032.5 1032.5 0.0
24/09:37am 6.9 3.6 4.6 85 1.0 N 11 13 6 7 1032.6 1032.6 0.0
24/09:30am 7.0 3.7 4.7 85 1.0 NNE 11 13 6 7 1032.5 1032.5 0.0
24/09:00am 6.4 3.9 4.6 88 0.8 NNE 7 9 4 5 1032.5 1032.5 0.0
24/08:30am 6.4 4.1 4.9 90 0.7 NNW 6 9 3 5 1032.3 1032.3 0.0
24/08:00am 6.3 4.0 4.9 91 0.6 N 6 7 3 4 1031.8 1031.8 0.0
24/07:30am 6.3 3.4 4.9 91 0.6 NNE 9 11 5 6 1031.3 1031.3 0.0
24/07:00am 6.4 3.9 5.0 91 0.6 NNE 7 9 4 5 1031.3 1031.3 0.0
24/06:30am 6.3 3.4 4.9 91 0.6 NE 9 11 5 6 1031.3 1031.3 0.0
24/06:00am 6.3 3.8 4.9 91 0.6 E 7 9 4 5 1031.0 1031.0 0.0
24/05:30am 6.2 3.3 4.7 90 0.6 ESE 9 11 5 6 1030.8 1030.8 0.0
24/05:00am 7.1 4.7 5.4 89 0.7 ENE 7 7 4 4 1030.9 1030.9 0.0
24/04:30am 7.2 6.2 5.5 89 0.8 CALM 0 0 0 0 1030.8 1030.8 0.0
24/04:00am 7.1 5.3 5.6 90 0.7 NW 4 7 2 4 1030.8 1030.8 0.0
24/03:30am 7.2 4.5 5.8 91 0.6 N 9 13 5 7 1030.7 1030.7 0.0
24/03:00am 7.3 4.3 6.2 93 0.5 N 11 13 6 7 1030.7 1030.7 0.0
24/02:38am 7.3 4.8 6.4 94 0.4 NNE 9 13 5 7 1030.8 1030.8 0.0
24/02:30am 7.2 4.6 6.3 94 0.4 N 9 11 5 6 1030.9 1030.9 0.0
24/02:00am 6.9 4.0 6.3 96 0.3 N 11 13 6 7 1031.0 1031.0 0.0
24/01:30am 4.9 2.4 4.0 94 0.4 NNE 6 7 3 4 1031.2 1031.2 0.0
24/01:00am 4.8 3.4 3.8 93 0.4 CALM 0 0 0 0 1031.4 1031.4 0.0
24/12:30am 4.9 2.4 3.9 93 0.4 NNW 6 7 3 4 1031.6 1031.6 0.0
24/12:00am 5.5 3.1 4.5 93 0.4 NNE 6 7 3 4 1031.6 1031.6 0.0
 
Date/Time
EST
Temp
°C
App
Temp
°C
Dew
Point
Rel
Hum
%
Delta-T
°C
Wind Press
QNH
hPa
Press
MSL
hPa
Rain
since 9 am
mm
Dir
 
Spd
km/h
Gust
km/h
Spd
kts
Gust
kts
23/11:30pm 6.0 3.5 4.8 92 0.5 NNE 7 7 4 4 1031.9 1031.9 0.0
23/11:00pm 6.2 5.0 4.8 91 0.6 CALM 0 0 0 0 1031.8 1031.8 0.0
23/10:30pm 6.4 5.3 4.9 90 0.7 CALM 0 0 0 0 1032.0 1032.0 0.0
23/10:00pm 6.4 5.2 4.7 89 0.7 CALM 0 0 0 0 1032.2 1032.2 0.0
23/09:30pm 6.7 5.6 4.9 88 0.8 CALM 0 0 0 0 1032.4 1032.4 0.0
23/09:00pm 7.1 6.0 5.1 87 0.9 CALM 0 0 0 0 1032.3 1032.3 0.0
23/08:30pm 7.5 6.4 5.3 86 1.0 CALM 0 0 0 0 1032.2 1032.2 0.0
23/08:00pm 7.4 4.9 4.7 83 1.2 SE 7 9 4 5 1032.1 1032.1 0.0
23/07:30pm 8.1 5.7 5.4 83 1.2 SE 7 9 4 5 1032.0 1032.0 0.0
23/07:00pm 9.0 5.5 5.4 78 1.6 SE 13 15 7 8 1031.9 1031.9 0.0
23/06:30pm 10.5 7.2 6.3 75 2.0 SE 13 17 7 9 1031.7 1031.7 0.0
23/06:00pm 11.1 9.0 6.5 73 2.1 SE 7 11 4 6 1031.6 1031.6 0.0
23/05:30pm 11.7 9.2 6.6 71 2.4 S 9 13 5 7 1031.5 1031.5 0.0
23/05:00pm 11.5 8.9 6.2 70 2.5 S 9 11 5 6 1031.5 1031.5 0.0
23/04:30pm 12.1 9.3 6.8 70 2.5 SSW 11 15 6 8 1031.5 1031.5 0.0
23/04:00pm 12.3 9.9 6.8 69 2.6 SSW 9 15 5 8 1031.7 1031.7 0.0
23/03:30pm 12.4 9.1 6.5 67 2.8 SW 13 17 7 9 1031.8 1031.8 0.0
23/03:00pm 12.1 8.3 5.9 66 2.9 SW 15 19 8 10 1031.7 1031.7 0.0
23/02:30pm 12.3 8.5 5.9 65 3.0 SW 15 19 8 10 1031.6 1031.6 0.0
23/02:00pm 12.3 8.2 6.4 67 2.8 SW 17 24 9 13 1031.7 1031.7 0.0
23/01:30pm 12.6 9.7 6.6 67 2.9 SSW 11 17 6 9 1032.0 1032.0 0.0
23/01:00pm 12.4 9.9 6.5 67 2.8 WSW 9 15 5 8 1032.1 1032.1 0.0
23/12:30pm 11.6 7.5 6.1 69 2.6 S 17 24 9 13 1032.4 1032.4 0.0
23/12:00pm 12.0 8.6 6.1 67 2.7 SSE 13 20 7 11 1032.9 1032.9 0.0
23/11:30am 11.9 9.2 5.8 66 2.8 S 9 17 5 9 1033.3 1033.3 0.0
23/11:00am 11.9 10.6 5.8 66 2.8 SSE 2 9 1 5 1033.6 1033.6 0.0
23/10:30am 11.2 8.4 5.1 66 2.8 S 9 15 5 8 1033.8 1033.8 0.0
23/10:00am 11.3 8.9 5.4 67 2.7 SSW 7 15 4 8 1033.6 1033.6 0.0
23/09:30am 11.3 8.6 5.8 69 2.6 SE 9 11 5 6 1033.7 1033.7 0.0
23/09:00am 10.8 8.0 5.3 69 2.5 ESE 9 13 5 7 1033.5 1033.5 0.0
23/08:30am 10.7 8.4 5.7 71 2.3 SE 7 11 4 6 1033.4 1033.4 0.0
23/08:00am 10.4 8.3 5.6 72 2.2 SSW 6 9 3 5 1033.1 1033.1 0.0
23/07:30am 10.1 7.9 5.5 73 2.1 ESE 6 7 3 4 1032.8 1032.8 0.0
23/07:00am 10.2 9.2 5.6 73 2.1 CALM 0 0 0 0 1032.7 1032.7 0.0
23/06:30am 10.1 9.1 5.5 73 2.1 CALM 0 2 0 1 1032.4 1032.4 0.0
23/06:00am 10.1 7.9 5.5 73 2.1 NE 6 7 3 4 1032.2 1032.2 0.0
23/05:30am 10.0 7.2 5.2 72 2.2 SE 9 11 5 6 1032.0 1032.0 0.0
23/05:00am 10.4 7.3 5.6 72 2.2 SSE 11 15 6 8 1031.9 1031.9 0.0
23/04:30am 10.5 9.1 5.5 71 2.3 SE 2 7 1 4 1031.7 1031.7 0.0
23/04:00am 10.6 9.6 5.4 70 2.4 CALM 0 0 0 0 1031.5 1031.5 0.0
23/03:30am 10.7 8.5 5.3 69 2.5 SSW 6 7 3 4 1031.6 1031.6 0.0
23/03:00am 10.7 7.9 5.3 69 2.4 SSE 9 13 5 7 1031.9 1031.9 0.0
23/02:30am 10.8 7.2 4.9 67 2.7 SSW 13 17 7 9 1032.0 1032.0 0.0
23/02:00am 11.1 8.3 5.2 67 2.7 S 9 15 5 8 1032.0 1032.0 0.0
23/01:30am 11.2 7.2 5.1 66 2.8 SSW 15 20 8 11 1031.9 1031.9 0.0
23/01:00am 11.1 8.5 6.0 71 2.4 SSE 9 11 5 6 1032.0 1032.0 0.0
23/12:30am 11.5 8.1 5.8 68 2.7 SSE 13 20 7 11 1032.2 1032.2 0.0
23/12:00am 11.5 8.9 6.0 69 2.5 S 9 15 5 8 1032.4 1032.4 0.0
 
Date/Time
EST
Temp
°C
App
Temp
°C
Dew
Point
Rel
Hum
%
Delta-T
°C
Wind Press
QNH
hPa
Press
MSL
hPa
Rain
since 9 am
mm
Dir
 
Spd
km/h
Gust
km/h
Spd
kts
Gust
kts
22/11:30pm 11.5 7.7 6.0 69 2.6 S 15 20 8 11 1032.3 1032.3 0.0
22/11:00pm 11.5 8.1 6.0 69 2.5 S 13 20 7 11 1032.2 1032.2 0.0
22/10:30pm 10.9 9.5 5.7 70 2.4 SSE 2 6 1 3 1032.2 1032.2 0.0
22/10:00pm 11.0 8.9 5.7 70 2.4 SE 6 7 3 4 1032.2 1032.2 0.0
22/09:30pm 11.2 8.1 5.5 68 2.6 SSE 11 13 6 7 1032.2 1032.2 0.0

Other Formats:

Comma delimited format used in spreadsheet applications
http://www.bom.gov.au/fwo/IDV60801/IDV60801.94870.axf

JavaScript Object Notation format (JSON) in row-major order
http://www.bom.gov.au/fwo/IDV60801/IDV60801.94870.json